sensor_id;sensor_type;location;lat;lon;timestamp;P1;durP1;ratioP1;P2;durP2;ratioP2
13309;SDS011;6723;48.256;16.402;2022-09-20T00:01:13;2.87;;;1.40;;
13309;SDS011;6723;48.256;16.402;2022-09-20T00:03:42;3.33;;;1.70;;
13309;SDS011;6723;48.256;16.402;2022-09-20T00:06:13;2.33;;;1.60;;
13309;SDS011;6723;48.256;16.402;2022-09-20T00:11:30;1.67;;;1.53;;
13309;SDS011;6723;48.256;16.402;2022-09-20T00:13:59;2.40;;;1.70;;
13309;SDS011;6723;48.256;16.402;2022-09-20T00:16:27;4.10;;;1.63;;
13309;SDS011;6723;48.256;16.402;2022-09-20T00:19:00;3.93;;;1.83;;
13309;SDS011;6723;48.256;16.402;2022-09-20T00:21:30;4.53;;;2.00;;
13309;SDS011;6723;48.256;16.402;2022-09-20T00:23:58;1.97;;;1.77;;
13309;SDS011;6723;48.256;16.402;2022-09-20T00:26:26;2.90;;;2.00;;
13309;SDS011;6723;48.256;16.402;2022-09-20T00:28:53;4.00;;;2.20;;
13309;SDS011;6723;48.256;16.402;2022-09-20T00:31:19;2.90;;;2.13;;
13309;SDS011;6723;48.256;16.402;2022-09-20T00:33:45;4.17;;;2.10;;
13309;SDS011;6723;48.256;16.402;2022-09-20T00:36:29;3.37;;;1.70;;
13309;SDS011;6723;48.256;16.402;2022-09-20T00:38:59;3.57;;;1.97;;
13309;SDS011;6723;48.256;16.402;2022-09-20T00:41:26;3.27;;;1.97;;
13309;SDS011;6723;48.256;16.402;2022-09-20T00:43:53;2.77;;;2.07;;
13309;SDS011;6723;48.256;16.402;2022-09-20T00:46:22;2.10;;;1.70;;
13309;SDS011;6723;48.256;16.402;2022-09-20T00:48:52;2.03;;;1.70;;
13309;SDS011;6723;48.256;16.402;2022-09-20T00:51:27;3.03;;;1.97;;
13309;SDS011;6723;48.256;16.402;2022-09-20T00:53:55;3.33;;;2.23;;
13309;SDS011;6723;48.256;16.402;2022-09-20T00:56:26;2.17;;;1.70;;
13309;SDS011;6723;48.256;16.402;2022-09-20T01:01:35;4.53;;;1.80;;
13309;SDS011;6723;48.256;16.402;2022-09-20T01:04:02;2.10;;;1.90;;
13309;SDS011;6723;48.256;16.402;2022-09-20T01:06:29;3.17;;;1.80;;
13309;SDS011;6723;48.256;16.402;2022-09-20T01:08:57;2.70;;;1.97;;
13309;SDS011;6723;48.256;16.402;2022-09-20T01:11:28;2.47;;;1.70;;
13309;SDS011;6723;48.256;16.402;2022-09-20T01:13:54;2.73;;;2.00;;
13309;SDS011;6723;48.256;16.402;2022-09-20T01:16:21;2.13;;;1.80;;
13309;SDS011;6723;48.256;16.402;2022-09-20T01:18:48;4.00;;;2.20;;
13309;SDS011;6723;48.256;16.402;2022-09-20T01:21:15;2.53;;;1.80;;
13309;SDS011;6723;48.256;16.402;2022-09-20T01:26:39;2.17;;;1.70;;
13309;SDS011;6723;48.256;16.402;2022-09-20T01:32:41;1.93;;;1.70;;
13309;SDS011;6723;48.256;16.402;2022-09-20T01:35:08;4.00;;;2.03;;
13309;SDS011;6723;48.256;16.402;2022-09-20T01:37:43;2.47;;;1.90;;
13309;SDS011;6723;48.256;16.402;2022-09-20T01:40:19;1.70;;;1.60;;
13309;SDS011;6723;48.256;16.402;2022-09-20T01:43:10;2.63;;;1.83;;
13309;SDS011;6723;48.256;16.402;2022-09-20T01:45:37;2.93;;;1.70;;
13309;SDS011;6723;48.256;16.402;2022-09-20T01:56:51;2.30;;;1.20;;
13309;SDS011;6723;48.256;16.402;2022-09-20T02:04:57;2.13;;;1.30;;
13309;SDS011;6723;48.256;16.402;2022-09-20T02:13:32;2.27;;;1.30;;
13309;SDS011;6723;48.256;16.402;2022-09-20T02:24:22;1.37;;;1.23;;
13309;SDS011;6723;48.256;16.402;2022-09-20T02:36:03;2.20;;;1.53;;
13309;SDS011;6723;48.256;16.402;2022-09-20T02:44:07;2.37;;;1.77;;
13309;SDS011;6723;48.256;16.402;2022-09-20T03:00:13;2.17;;;1.60;;
13309;SDS011;6723;48.256;16.402;2022-09-20T03:05:52;4.67;;;1.77;;
13309;SDS011;6723;48.256;16.402;2022-09-20T03:08:46;1.80;;;1.70;;
13309;SDS011;6723;48.256;16.402;2022-09-20T03:11:18;1.73;;;1.47;;
13309;SDS011;6723;48.256;16.402;2022-09-20T03:19:27;1.63;;;1.43;;
13309;SDS011;6723;48.256;16.402;2022-09-20T03:28:14;2.23;;;1.30;;
13309;SDS011;6723;48.256;16.402;2022-09-20T03:42:01;3.77;;;1.40;;
13309;SDS011;6723;48.256;16.402;2022-09-20T04:09:34;1.70;;;1.10;;
13309;SDS011;6723;48.256;16.402;2022-09-20T04:15:45;2.47;;;1.30;;
13309;SDS011;6723;48.256;16.402;2022-09-20T04:23:58;1.70;;;1.60;;
13309;SDS011;6723;48.256;16.402;2022-09-20T04:26:26;2.50;;;1.67;;
13309;SDS011;6723;48.256;16.402;2022-09-20T04:31:45;2.37;;;1.20;;
13309;SDS011;6723;48.256;16.402;2022-09-20T04:34:24;1.70;;;1.60;;
13309;SDS011;6723;48.256;16.402;2022-09-20T04:37:29;2.70;;;1.80;;
13309;SDS011;6723;48.256;16.402;2022-09-20T04:40:22;3.97;;;1.97;;
13309;SDS011;6723;48.256;16.402;2022-09-20T04:43:40;1.70;;;1.60;;
13309;SDS011;6723;48.256;16.402;2022-09-20T04:46:44;2.17;;;1.80;;
13309;SDS011;6723;48.256;16.402;2022-09-20T05:18:55;2.83;;;2.00;;
13309;SDS011;6723;48.256;16.402;2022-09-20T05:30:33;2.23;;;1.80;;
13309;SDS011;6723;48.256;16.402;2022-09-20T05:33:18;2.37;;;1.60;;
13309;SDS011;6723;48.256;16.402;2022-09-20T05:36:03;4.13;;;1.93;;
13309;SDS011;6723;48.256;16.402;2022-09-20T05:38:33;1.83;;;1.60;;
13309;SDS011;6723;48.256;16.402;2022-09-20T05:47:23;2.97;;;2.07;;
13309;SDS011;6723;48.256;16.402;2022-09-20T05:50:23;2.17;;;1.73;;
13309;SDS011;6723;48.256;16.402;2022-09-20T05:52:54;3.23;;;1.60;;
13309;SDS011;6723;48.256;16.402;2022-09-20T05:55:42;2.50;;;1.50;;
13309;SDS011;6723;48.256;16.402;2022-09-20T05:58:43;3.47;;;1.97;;
13309;SDS011;6723;48.256;16.402;2022-09-20T06:01:29;2.73;;;1.40;;
13309;SDS011;6723;48.256;16.402;2022-09-20T06:09:42;3.63;;;1.40;;
13309;SDS011;6723;48.256;16.402;2022-09-20T06:15:35;1.53;;;1.20;;
13309;SDS011;6723;48.256;16.402;2022-09-20T06:18:37;1.40;;;1.27;;
13309;SDS011;6723;48.256;16.402;2022-09-20T06:24:13;1.33;;;1.17;;
13309;SDS011;6723;48.256;16.402;2022-09-20T06:27:01;2.90;;;1.40;;
13309;SDS011;6723;48.256;16.402;2022-09-20T06:29:46;2.47;;;1.33;;
13309;SDS011;6723;48.256;16.402;2022-09-20T06:32:17;1.53;;;1.30;;
13309;SDS011;6723;48.256;16.402;2022-09-20T06:34:43;1.43;;;1.20;;
13309;SDS011;6723;48.256;16.402;2022-09-20T06:37:17;1.60;;;1.30;;
13309;SDS011;6723;48.256;16.402;2022-09-20T06:43:37;3.23;;;1.20;;
13309;SDS011;6723;48.256;16.402;2022-09-20T06:46:05;1.40;;;1.30;;
13309;SDS011;6723;48.256;16.402;2022-09-20T06:48:31;1.40;;;1.30;;
13309;SDS011;6723;48.256;16.402;2022-09-20T06:50:57;1.93;;;1.40;;
13309;SDS011;6723;48.256;16.402;2022-09-20T06:53:31;2.57;;;1.40;;
13309;SDS011;6723;48.256;16.402;2022-09-20T06:55:59;3.67;;;1.70;;
13309;SDS011;6723;48.256;16.402;2022-09-20T06:58:25;1.60;;;1.33;;
13309;SDS011;6723;48.256;16.402;2022-09-20T07:00:52;1.23;;;1.13;;
13309;SDS011;6723;48.256;16.402;2022-09-20T07:03:18;1.40;;;1.30;;
13309;SDS011;6723;48.256;16.402;2022-09-20T07:05:44;2.13;;;1.10;;
13309;SDS011;6723;48.256;16.402;2022-09-20T07:08:10;1.77;;;1.30;;
13309;SDS011;6723;48.256;16.402;2022-09-20T07:10:36;2.13;;;1.00;;
13309;SDS011;6723;48.256;16.402;2022-09-20T07:13:03;1.37;;;1.10;;
13309;SDS011;6723;48.256;16.402;2022-09-20T07:15:30;4.10;;;1.17;;
13309;SDS011;6723;48.256;16.402;2022-09-20T07:17:57;1.83;;;1.00;;
13309;SDS011;6723;48.256;16.402;2022-09-20T07:20:24;1.77;;;0.90;;
13309;SDS011;6723;48.256;16.402;2022-09-20T07:22:50;1.93;;;1.10;;
13309;SDS011;6723;48.256;16.402;2022-09-20T07:25:21;1.20;;;1.10;;
13309;SDS011;6723;48.256;16.402;2022-09-20T07:27:48;1.20;;;1.10;;
13309;SDS011;6723;48.256;16.402;2022-09-20T07:30:15;2.67;;;1.17;;
13309;SDS011;6723;48.256;16.402;2022-09-20T07:32:42;2.07;;;1.20;;
13309;SDS011;6723;48.256;16.402;2022-09-20T07:35:08;1.13;;;1.03;;
13309;SDS011;6723;48.256;16.402;2022-09-20T07:37:34;0.83;;;0.70;;
13309;SDS011;6723;48.256;16.402;2022-09-20T07:42:45;2.87;;;1.10;;
13309;SDS011;6723;48.256;16.402;2022-09-20T07:45:10;1.73;;;1.20;;
13309;SDS011;6723;48.256;16.402;2022-09-20T07:47:37;1.17;;;0.80;;
13309;SDS011;6723;48.256;16.402;2022-09-20T07:50:05;1.50;;;1.10;;
13309;SDS011;6723;48.256;16.402;2022-09-20T07:52:31;1.00;;;0.80;;
13309;SDS011;6723;48.256;16.402;2022-09-20T07:54:57;2.10;;;1.27;;
13309;SDS011;6723;48.256;16.402;2022-09-20T07:57:22;1.47;;;1.10;;
13309;SDS011;6723;48.256;16.402;2022-09-20T07:59:48;2.77;;;1.10;;
13309;SDS011;6723;48.256;16.402;2022-09-20T08:02:14;1.40;;;1.30;;
13309;SDS011;6723;48.256;16.402;2022-09-20T08:04:40;1.87;;;1.20;;
13309;SDS011;6723;48.256;16.402;2022-09-20T08:07:07;1.57;;;1.17;;
13309;SDS011;6723;48.256;16.402;2022-09-20T08:09:32;2.23;;;1.43;;
13309;SDS011;6723;48.256;16.402;2022-09-20T08:11:58;2.97;;;1.90;;
13309;SDS011;6723;48.256;16.402;2022-09-20T08:14:24;1.40;;;1.30;;
13309;SDS011;6723;48.256;16.402;2022-09-20T08:16:50;3.23;;;1.50;;
13309;SDS011;6723;48.256;16.402;2022-09-20T08:19:19;1.43;;;1.30;;
13309;SDS011;6723;48.256;16.402;2022-09-20T08:21:47;2.03;;;1.43;;
13309;SDS011;6723;48.256;16.402;2022-09-20T08:32:30;2.83;;;1.80;;
13309;SDS011;6723;48.256;16.402;2022-09-20T08:37:27;2.73;;;1.60;;
13309;SDS011;6723;48.256;16.402;2022-09-20T08:39:54;2.57;;;1.43;;
13309;SDS011;6723;48.256;16.402;2022-09-20T08:42:25;2.43;;;1.53;;
13309;SDS011;6723;48.256;16.402;2022-09-20T08:44:58;3.40;;;1.53;;
13309;SDS011;6723;48.256;16.402;2022-09-20T08:47:36;1.70;;;1.33;;
13309;SDS011;6723;48.256;16.402;2022-09-20T08:50:12;1.93;;;1.47;;
13309;SDS011;6723;48.256;16.402;2022-09-20T08:52:42;1.87;;;1.30;;
13309;SDS011;6723;48.256;16.402;2022-09-20T08:55:17;1.33;;;1.07;;
13309;SDS011;6723;48.256;16.402;2022-09-20T08:57:53;2.13;;;1.10;;
13309;SDS011;6723;48.256;16.402;2022-09-20T09:00:31;2.70;;;1.10;;
13309;SDS011;6723;48.256;16.402;2022-09-20T09:02:59;3.00;;;1.17;;
13309;SDS011;6723;48.256;16.402;2022-09-20T09:05:49;1.70;;;1.00;;
13309;SDS011;6723;48.256;16.402;2022-09-20T09:08:21;2.03;;;1.10;;
13309;SDS011;6723;48.256;16.402;2022-09-20T09:10:56;1.53;;;1.00;;
13309;SDS011;6723;48.256;16.402;2022-09-20T09:16:12;1.37;;;0.70;;
13309;SDS011;6723;48.256;16.402;2022-09-20T09:18:43;1.37;;;0.90;;
13309;SDS011;6723;48.256;16.402;2022-09-20T09:21:21;1.17;;;0.80;;
13309;SDS011;6723;48.256;16.402;2022-09-20T09:31:39;2.87;;;0.87;;
13309;SDS011;6723;48.256;16.402;2022-09-20T09:34:26;2.03;;;1.20;;
13309;SDS011;6723;48.256;16.402;2022-09-20T09:36:51;1.67;;;1.10;;
13309;SDS011;6723;48.256;16.402;2022-09-20T09:39:24;2.80;;;1.10;;
13309;SDS011;6723;48.256;16.402;2022-09-20T09:41:57;3.10;;;1.00;;
13309;SDS011;6723;48.256;16.402;2022-09-20T09:44:30;2.10;;;0.77;;
13309;SDS011;6723;48.256;16.402;2022-09-20T09:46:58;2.17;;;0.73;;
13309;SDS011;6723;48.256;16.402;2022-09-20T09:49:28;2.13;;;0.80;;
13309;SDS011;6723;48.256;16.402;2022-09-20T09:54:29;1.63;;;0.60;;
13309;SDS011;6723;48.256;16.402;2022-09-20T09:57:09;2.07;;;0.70;;
13309;SDS011;6723;48.256;16.402;2022-09-20T10:19:44;1.87;;;0.90;;
13309;SDS011;6723;48.256;16.402;2022-09-20T10:30:46;1.30;;;0.73;;
13309;SDS011;6723;48.256;16.402;2022-09-20T10:33:43;1.43;;;0.50;;
13309;SDS011;6723;48.256;16.402;2022-09-20T10:37:12;1.73;;;0.70;;
13309;SDS011;6723;48.256;16.402;2022-09-20T10:47:53;1.50;;;0.80;;
13309;SDS011;6723;48.256;16.402;2022-09-20T10:50:40;3.20;;;0.80;;
13309;SDS011;6723;48.256;16.402;2022-09-20T11:07:36;2.30;;;0.77;;
13309;SDS011;6723;48.256;16.402;2022-09-20T11:12:52;2.60;;;0.77;;
13309;SDS011;6723;48.256;16.402;2022-09-20T11:23:48;2.57;;;0.60;;
13309;SDS011;6723;48.256;16.402;2022-09-20T11:37:12;3.10;;;0.80;;
13309;SDS011;6723;48.256;16.402;2022-09-20T11:39:41;3.90;;;1.33;;
13309;SDS011;6723;48.256;16.402;2022-09-20T11:42:18;1.23;;;0.80;;
13309;SDS011;6723;48.256;16.402;2022-09-20T11:44:48;1.20;;;1.00;;
13309;SDS011;6723;48.256;16.402;2022-09-20T11:47:34;2.93;;;0.90;;
13309;SDS011;6723;48.256;16.402;2022-09-20T11:56:21;1.10;;;0.80;;
13309;SDS011;6723;48.256;16.402;2022-09-20T11:58:57;1.13;;;1.00;;
13309;SDS011;6723;48.256;16.402;2022-09-20T12:01:36;1.07;;;0.80;;
13309;SDS011;6723;48.256;16.402;2022-09-20T12:04:11;1.10;;;1.00;;
13309;SDS011;6723;48.256;16.402;2022-09-20T12:06:54;1.20;;;0.97;;
13309;SDS011;6723;48.256;16.402;2022-09-20T12:12:45;0.80;;;0.80;;
13309;SDS011;6723;48.256;16.402;2022-09-20T12:34:03;1.40;;;0.90;;
13309;SDS011;6723;48.256;16.402;2022-09-20T12:41:53;1.13;;;0.73;;
13309;SDS011;6723;48.256;16.402;2022-09-20T12:47:29;1.23;;;0.90;;
13309;SDS011;6723;48.256;16.402;2022-09-20T12:49:57;1.43;;;0.83;;
13309;SDS011;6723;48.256;16.402;2022-09-20T13:19:24;4.70;;;1.30;;
13309;SDS011;6723;48.256;16.402;2022-09-20T13:24:31;2.27;;;1.60;;
13309;SDS011;6723;48.256;16.402;2022-09-20T13:27:04;1.53;;;1.20;;
13309;SDS011;6723;48.256;16.402;2022-09-20T13:29:36;1.33;;;1.10;;
13309;SDS011;6723;48.256;16.402;2022-09-20T13:45:58;1.47;;;1.23;;
13309;SDS011;6723;48.256;16.402;2022-09-20T13:48:30;2.07;;;1.43;;
13309;SDS011;6723;48.256;16.402;2022-09-20T13:50:57;2.80;;;1.20;;
13309;SDS011;6723;48.256;16.402;2022-09-20T13:56:18;2.17;;;1.50;;
13309;SDS011;6723;48.256;16.402;2022-09-20T13:58:51;3.77;;;1.80;;
13309;SDS011;6723;48.256;16.402;2022-09-20T14:01:22;2.87;;;1.60;;
13309;SDS011;6723;48.256;16.402;2022-09-20T14:03:52;2.70;;;1.43;;
13309;SDS011;6723;48.256;16.402;2022-09-20T14:06:21;2.30;;;1.13;;
13309;SDS011;6723;48.256;16.402;2022-09-20T14:08:52;7.03;;;1.30;;
13309;SDS011;6723;48.256;16.402;2022-09-20T14:11:20;1.80;;;0.93;;
13309;SDS011;6723;48.256;16.402;2022-09-20T14:13:50;3.33;;;0.90;;
13309;SDS011;6723;48.256;16.402;2022-09-20T14:16:19;2.63;;;1.67;;
13309;SDS011;6723;48.256;16.402;2022-09-20T14:18:47;3.13;;;1.20;;
13309;SDS011;6723;48.256;16.402;2022-09-20T14:21:16;2.83;;;1.13;;
13309;SDS011;6723;48.256;16.402;2022-09-20T14:24:05;3.43;;;1.03;;
13309;SDS011;6723;48.256;16.402;2022-09-20T14:26:38;2.30;;;1.20;;
13309;SDS011;6723;48.256;16.402;2022-09-20T14:31:57;1.03;;;0.80;;
13309;SDS011;6723;48.256;16.402;2022-09-20T14:34:39;2.37;;;1.40;;
13309;SDS011;6723;48.256;16.402;2022-09-20T14:37:08;1.40;;;1.00;;
13309;SDS011;6723;48.256;16.402;2022-09-20T14:39:45;1.13;;;0.93;;
13309;SDS011;6723;48.256;16.402;2022-09-20T14:42:27;1.00;;;0.80;;
13309;SDS011;6723;48.256;16.402;2022-09-20T14:47:52;1.27;;;1.17;;
13309;SDS011;6723;48.256;16.402;2022-09-20T14:53:43;2.73;;;1.60;;
13309;SDS011;6723;48.256;16.402;2022-09-20T14:58:31;2.63;;;1.77;;
13309;SDS011;6723;48.256;16.402;2022-09-20T15:01:21;1.83;;;1.30;;
13309;SDS011;6723;48.256;16.402;2022-09-20T15:03:48;1.37;;;1.10;;
13309;SDS011;6723;48.256;16.402;2022-09-20T15:06:15;1.27;;;1.00;;
13309;SDS011;6723;48.256;16.402;2022-09-20T15:08:41;1.23;;;1.10;;
13309;SDS011;6723;48.256;16.402;2022-09-20T15:11:11;2.13;;;1.20;;
13309;SDS011;6723;48.256;16.402;2022-09-20T15:13:40;0.80;;;0.80;;
13309;SDS011;6723;48.256;16.402;2022-09-20T15:16:06;1.70;;;1.00;;
13309;SDS011;6723;48.256;16.402;2022-09-20T15:18:37;2.70;;;1.40;;
13309;SDS011;6723;48.256;16.402;2022-09-20T15:21:05;1.00;;;0.90;;
13309;SDS011;6723;48.256;16.402;2022-09-20T15:23:31;1.10;;;1.00;;
13309;SDS011;6723;48.256;16.402;2022-09-20T15:25:57;1.77;;;1.00;;
13309;SDS011;6723;48.256;16.402;2022-09-20T15:28:24;0.80;;;0.77;;
13309;SDS011;6723;48.256;16.402;2022-09-20T15:30:51;1.00;;;0.90;;
13309;SDS011;6723;48.256;16.402;2022-09-20T15:33:20;1.03;;;0.93;;
13309;SDS011;6723;48.256;16.402;2022-09-20T15:35:46;1.70;;;0.93;;
13309;SDS011;6723;48.256;16.402;2022-09-20T15:38:13;1.10;;;1.00;;
13309;SDS011;6723;48.256;16.402;2022-09-20T15:40:42;2.90;;;0.90;;
13309;SDS011;6723;48.256;16.402;2022-09-20T15:43:17;0.80;;;0.80;;
13309;SDS011;6723;48.256;16.402;2022-09-20T15:45:52;0.80;;;0.80;;
13309;SDS011;6723;48.256;16.402;2022-09-20T15:48:20;1.97;;;0.80;;
13309;SDS011;6723;48.256;16.402;2022-09-20T15:53:43;1.57;;;1.00;;
13309;SDS011;6723;48.256;16.402;2022-09-20T15:56:17;1.80;;;1.30;;
13309;SDS011;6723;48.256;16.402;2022-09-20T15:58:56;1.83;;;1.30;;
13309;SDS011;6723;48.256;16.402;2022-09-20T16:01:27;1.30;;;1.10;;
13309;SDS011;6723;48.256;16.402;2022-09-20T16:03:58;1.97;;;1.40;;
13309;SDS011;6723;48.256;16.402;2022-09-20T16:06:24;1.80;;;1.33;;
13309;SDS011;6723;48.256;16.402;2022-09-20T16:08:50;4.20;;;1.73;;
13309;SDS011;6723;48.256;16.402;2022-09-20T16:11:17;3.00;;;2.10;;
13309;SDS011;6723;48.256;16.402;2022-09-20T16:13:54;2.13;;;1.50;;
13309;SDS011;6723;48.256;16.402;2022-09-20T16:16:21;3.07;;;2.10;;
13309;SDS011;6723;48.256;16.402;2022-09-20T16:18:48;1.37;;;1.27;;
13309;SDS011;6723;48.256;16.402;2022-09-20T16:21:32;1.43;;;1.00;;
13309;SDS011;6723;48.256;16.402;2022-09-20T16:23:58;3.67;;;1.13;;
13309;SDS011;6723;48.256;16.402;2022-09-20T16:26:25;1.87;;;1.20;;
13309;SDS011;6723;48.256;16.402;2022-09-20T16:28:53;2.67;;;1.43;;
13309;SDS011;6723;48.256;16.402;2022-09-20T16:33:56;4.07;;;2.03;;
13309;SDS011;6723;48.256;16.402;2022-09-20T16:36:22;7.43;;;2.67;;
13309;SDS011;6723;48.256;16.402;2022-09-20T16:38:49;8.80;;;2.90;;
13309;SDS011;6723;48.256;16.402;2022-09-20T16:41:16;2.97;;;1.80;;
13309;SDS011;6723;48.256;16.402;2022-09-20T16:43:43;3.03;;;1.77;;
13309;SDS011;6723;48.256;16.402;2022-09-20T16:46:11;1.60;;;1.10;;
13309;SDS011;6723;48.256;16.402;2022-09-20T16:48:37;2.60;;;1.00;;
13309;SDS011;6723;48.256;16.402;2022-09-20T16:51:03;2.07;;;0.77;;
13309;SDS011;6723;48.256;16.402;2022-09-20T16:53:31;1.90;;;1.10;;
13309;SDS011;6723;48.256;16.402;2022-09-20T16:55:56;0.70;;;0.70;;
13309;SDS011;6723;48.256;16.402;2022-09-20T16:58:29;0.90;;;0.90;;
13309;SDS011;6723;48.256;16.402;2022-09-20T17:01:01;2.97;;;1.00;;
13309;SDS011;6723;48.256;16.402;2022-09-20T17:06:16;2.00;;;1.50;;
13309;SDS011;6723;48.256;16.402;2022-09-20T17:08:44;1.30;;;0.97;;
13309;SDS011;6723;48.256;16.402;2022-09-20T17:11:15;2.23;;;1.10;;
13309;SDS011;6723;48.256;16.402;2022-09-20T17:13:56;2.50;;;2.10;;
13309;SDS011;6723;48.256;16.402;2022-09-20T17:16:29;1.67;;;1.37;;
13309;SDS011;6723;48.256;16.402;2022-09-20T17:19:04;3.23;;;1.30;;
13309;SDS011;6723;48.256;16.402;2022-09-20T17:21:33;2.47;;;1.13;;
13309;SDS011;6723;48.256;16.402;2022-09-20T17:24:00;3.77;;;1.17;;
13309;SDS011;6723;48.256;16.402;2022-09-20T17:26:38;1.20;;;1.10;;
13309;SDS011;6723;48.256;16.402;2022-09-20T17:29:07;1.40;;;1.17;;
13309;SDS011;6723;48.256;16.402;2022-09-20T17:31:36;2.70;;;1.20;;
13309;SDS011;6723;48.256;16.402;2022-09-20T17:34:03;1.10;;;1.00;;
13309;SDS011;6723;48.256;16.402;2022-09-20T17:36:35;3.27;;;1.20;;
13309;SDS011;6723;48.256;16.402;2022-09-20T17:39:09;1.10;;;1.00;;
13309;SDS011;6723;48.256;16.402;2022-09-20T17:41:41;1.63;;;1.20;;
13309;SDS011;6723;48.256;16.402;2022-09-20T17:44:19;1.67;;;1.10;;
13309;SDS011;6723;48.256;16.402;2022-09-20T17:46:45;3.67;;;1.70;;
13309;SDS011;6723;48.256;16.402;2022-09-20T17:49:17;2.73;;;1.60;;
13309;SDS011;6723;48.256;16.402;2022-09-20T17:51:49;2.03;;;1.40;;
13309;SDS011;6723;48.256;16.402;2022-09-20T17:54:16;2.10;;;1.17;;
13309;SDS011;6723;48.256;16.402;2022-09-20T17:56:50;1.73;;;1.00;;
13309;SDS011;6723;48.256;16.402;2022-09-20T17:59:25;1.30;;;1.03;;
13309;SDS011;6723;48.256;16.402;2022-09-20T18:01:51;1.33;;;0.83;;
13309;SDS011;6723;48.256;16.402;2022-09-20T18:04:27;2.10;;;1.07;;
13309;SDS011;6723;48.256;16.402;2022-09-20T18:06:53;1.43;;;1.10;;
13309;SDS011;6723;48.256;16.402;2022-09-20T18:09:24;1.67;;;1.17;;
13309;SDS011;6723;48.256;16.402;2022-09-20T18:11:52;2.63;;;1.10;;
13309;SDS011;6723;48.256;16.402;2022-09-20T18:14:20;1.70;;;1.47;;
13309;SDS011;6723;48.256;16.402;2022-09-20T18:16:52;1.67;;;1.20;;
13309;SDS011;6723;48.256;16.402;2022-09-20T18:19:36;1.87;;;0.83;;
13309;SDS011;6723;48.256;16.402;2022-09-20T18:22:04;1.70;;;1.10;;
13309;SDS011;6723;48.256;16.402;2022-09-20T18:24:30;1.27;;;1.00;;
13309;SDS011;6723;48.256;16.402;2022-09-20T18:26:55;1.17;;;0.90;;
13309;SDS011;6723;48.256;16.402;2022-09-20T18:29:21;0.80;;;0.80;;
13309;SDS011;6723;48.256;16.402;2022-09-20T18:31:49;4.77;;;1.60;;
13309;SDS011;6723;48.256;16.402;2022-09-20T18:34:21;2.03;;;1.30;;
13309;SDS011;6723;48.256;16.402;2022-09-20T18:36:49;2.20;;;1.23;;
13309;SDS011;6723;48.256;16.402;2022-09-20T18:39:24;2.37;;;1.20;;
13309;SDS011;6723;48.256;16.402;2022-09-20T18:41:51;3.60;;;1.40;;
13309;SDS011;6723;48.256;16.402;2022-09-20T18:44:17;1.23;;;1.10;;
13309;SDS011;6723;48.256;16.402;2022-09-20T18:46:44;1.50;;;1.07;;
13309;SDS011;6723;48.256;16.402;2022-09-20T18:49:11;2.40;;;1.50;;
13309;SDS011;6723;48.256;16.402;2022-09-20T18:51:41;1.30;;;1.00;;
13309;SDS011;6723;48.256;16.402;2022-09-20T18:56:43;2.83;;;1.10;;
13309;SDS011;6723;48.256;16.402;2022-09-20T18:59:18;2.57;;;1.17;;
13309;SDS011;6723;48.256;16.402;2022-09-20T19:13:07;3.97;;;1.40;;
13309;SDS011;6723;48.256;16.402;2022-09-20T19:19:01;1.87;;;1.20;;
13309;SDS011;6723;48.256;16.402;2022-09-20T19:26:51;2.43;;;1.40;;
13309;SDS011;6723;48.256;16.402;2022-09-20T19:29:21;2.30;;;1.30;;
13309;SDS011;6723;48.256;16.402;2022-09-20T19:31:53;2.40;;;1.17;;
13309;SDS011;6723;48.256;16.402;2022-09-20T19:34:22;1.77;;;1.10;;
13309;SDS011;6723;48.256;16.402;2022-09-20T19:40:06;1.83;;;1.10;;
13309;SDS011;6723;48.256;16.402;2022-09-20T19:53:11;2.27;;;1.10;;
13309;SDS011;6723;48.256;16.402;2022-09-20T19:55:38;3.60;;;1.30;;
13309;SDS011;6723;48.256;16.402;2022-09-20T19:58:11;2.03;;;1.00;;
13309;SDS011;6723;48.256;16.402;2022-09-20T20:00:39;2.40;;;1.30;;
13309;SDS011;6723;48.256;16.402;2022-09-20T20:06:35;4.27;;;1.03;;
13309;SDS011;6723;48.256;16.402;2022-09-20T20:17:47;1.80;;;1.47;;
13309;SDS011;6723;48.256;16.402;2022-09-20T20:25:58;2.17;;;1.50;;
13309;SDS011;6723;48.256;16.402;2022-09-20T20:28:41;2.07;;;1.47;;
13309;SDS011;6723;48.256;16.402;2022-09-20T20:31:06;1.53;;;1.20;;
13309;SDS011;6723;48.256;16.402;2022-09-20T20:33:36;2.10;;;1.30;;
13309;SDS011;6723;48.256;16.402;2022-09-20T20:36:03;2.57;;;1.50;;
13309;SDS011;6723;48.256;16.402;2022-09-20T20:38:35;2.87;;;1.43;;
13309;SDS011;6723;48.256;16.402;2022-09-20T20:41:03;2.10;;;1.37;;
13309;SDS011;6723;48.256;16.402;2022-09-20T20:43:37;2.33;;;1.60;;
13309;SDS011;6723;48.256;16.402;2022-09-20T20:46:06;5.43;;;2.90;;
13309;SDS011;6723;48.256;16.402;2022-09-20T20:48:33;3.97;;;2.27;;
13309;SDS011;6723;48.256;16.402;2022-09-20T20:51:10;8.60;;;3.53;;
13309;SDS011;6723;48.256;16.402;2022-09-20T20:53:38;3.00;;;2.00;;
13309;SDS011;6723;48.256;16.402;2022-09-20T20:56:10;3.70;;;2.53;;
13309;SDS011;6723;48.256;16.402;2022-09-20T20:58:38;5.63;;;2.83;;
13309;SDS011;6723;48.256;16.402;2022-09-20T21:01:19;2.07;;;1.53;;
13309;SDS011;6723;48.256;16.402;2022-09-20T21:04:09;2.23;;;1.30;;
13309;SDS011;6723;48.256;16.402;2022-09-20T21:06:37;1.40;;;1.27;;
13309;SDS011;6723;48.256;16.402;2022-09-20T21:09:05;4.23;;;1.57;;
13309;SDS011;6723;48.256;16.402;2022-09-20T21:11:33;2.13;;;1.33;;
13309;SDS011;6723;48.256;16.402;2022-09-20T21:14:04;5.13;;;1.50;;
13309;SDS011;6723;48.256;16.402;2022-09-20T21:16:35;1.97;;;1.40;;
13309;SDS011;6723;48.256;16.402;2022-09-20T21:19:04;1.37;;;1.20;;
13309;SDS011;6723;48.256;16.402;2022-09-20T21:21:35;1.83;;;1.30;;
13309;SDS011;6723;48.256;16.402;2022-09-20T21:24:07;1.33;;;1.23;;
13309;SDS011;6723;48.256;16.402;2022-09-20T21:26:35;1.40;;;1.30;;
13309;SDS011;6723;48.256;16.402;2022-09-20T21:29:04;1.57;;;1.30;;
13309;SDS011;6723;48.256;16.402;2022-09-20T21:31:35;1.20;;;1.10;;
13309;SDS011;6723;48.256;16.402;2022-09-20T21:34:03;1.80;;;1.27;;
13309;SDS011;6723;48.256;16.402;2022-09-20T21:36:31;1.97;;;1.40;;
13309;SDS011;6723;48.256;16.402;2022-09-20T21:38:58;2.43;;;1.27;;
13309;SDS011;6723;48.256;16.402;2022-09-20T21:41:28;1.50;;;1.30;;
13309;SDS011;6723;48.256;16.402;2022-09-20T21:43:56;1.33;;;1.23;;
13309;SDS011;6723;48.256;16.402;2022-09-20T21:49:05;1.83;;;1.20;;
13309;SDS011;6723;48.256;16.402;2022-09-20T21:51:36;1.33;;;1.10;;
13309;SDS011;6723;48.256;16.402;2022-09-20T21:54:03;2.10;;;1.50;;
13309;SDS011;6723;48.256;16.402;2022-09-20T21:56:33;2.83;;;1.23;;
13309;SDS011;6723;48.256;16.402;2022-09-20T21:59:01;2.13;;;1.30;;
13309;SDS011;6723;48.256;16.402;2022-09-20T22:01:29;3.27;;;1.33;;
13309;SDS011;6723;48.256;16.402;2022-09-20T22:03:59;1.90;;;1.57;;
13309;SDS011;6723;48.256;16.402;2022-09-20T22:06:34;2.13;;;1.23;;
13309;SDS011;6723;48.256;16.402;2022-09-20T22:09:04;2.23;;;1.43;;
13309;SDS011;6723;48.256;16.402;2022-09-20T22:11:32;2.60;;;1.50;;
13309;SDS011;6723;48.256;16.402;2022-09-20T22:14:16;1.57;;;1.10;;
13309;SDS011;6723;48.256;16.402;2022-09-20T22:16:44;2.47;;;1.13;;
13309;SDS011;6723;48.256;16.402;2022-09-20T22:19:12;2.40;;;1.23;;
13309;SDS011;6723;48.256;16.402;2022-09-20T22:21:41;2.17;;;1.57;;
13309;SDS011;6723;48.256;16.402;2022-09-20T22:24:09;1.90;;;1.47;;
13309;SDS011;6723;48.256;16.402;2022-09-20T22:26:37;1.93;;;1.60;;
13309;SDS011;6723;48.256;16.402;2022-09-20T22:29:05;2.07;;;1.40;;
13309;SDS011;6723;48.256;16.402;2022-09-20T22:31:37;1.50;;;1.40;;
13309;SDS011;6723;48.256;16.402;2022-09-20T22:34:09;1.87;;;1.40;;
13309;SDS011;6723;48.256;16.402;2022-09-20T22:36:41;2.50;;;1.33;;
13309;SDS011;6723;48.256;16.402;2022-09-20T22:39:09;1.87;;;1.40;;
13309;SDS011;6723;48.256;16.402;2022-09-20T22:41:36;1.50;;;1.27;;
13309;SDS011;6723;48.256;16.402;2022-09-20T22:44:03;1.83;;;1.20;;
13309;SDS011;6723;48.256;16.402;2022-09-20T22:46:30;1.30;;;1.17;;